Finlandia — OJPP — position and weather

sailwx.info

Track history (hours):
 
Tides and Currents Weather Stations Pressure Air Temp Water Temp Dewpoint Dewpoint Depression Visibility Wind Speed Wind Dir Waves Ship Positions

Finlandia

Last reported at 2016-Jul-31 06:33 UTC. Time now 2016-Jul-31 07:20 UTC.
Position N 59°49' E 024°49'.

Length 175 m; draft 7 m.

Type: Passenger vessel. MMSI: 230628000.

Date/timePositionNaut miles runAvg speedWind from/ knotsBaromVisibWave heightAir tempDewpointWater temp
2016-Jul-31 06:33N 59°49' E 024°49'13 0.9
2016-Jul-30 16:23N 59°37' E 024°41'1113.1
2016-Jul-30 15:33N 59°27' E 024°46'1 0.6
2016-Jul-30 14:33N 59°27' E 024°47'2221.7
2016-Jul-30 13:34N 59°49' E 024°49'2119.9
2016-Jul-30 12:32N 60°09' E 024°55'0 0.2
2016-Jul-30 11:33N 60°09' E 024°55'1414.0
2016-Jul-30 10:34N 59°55' E 024°52'1918.7
2016-Jul-30 09:34N 59°38' E 024°41'1110.6
2016-Jul-30 08:30N 59°27' E 024°46'5 5.1
2016-Jul-30 07:33N 59°31' E 024°43'1919.3
2016-Jul-30 06:33N 59°51' E 024°47'19 3.1
2016-Jul-30 00:31N 60°09' E 024°55'0 0.0
2016-Jul-29 19:31N 60°09' E 024°55'0 0.0
2016-Jul-29 18:31N 60°09' E 024°55'10 9.4
2016-Jul-29 17:30N 59°60' E 024°54'1819.7
2016-Jul-29 16:33N 59°42' E 024°41'16 7.8
2016-Jul-29 14:33N 59°27' E 024°47'2222.2
2016-Jul-29 13:33N 59°49' E 024°50'2 0.5
2016-Jul-29 10:05N 59°48' E 024°49'1220.3
2016-Jul-29 09:29N 59°36' E 024°41'10 9.2
2016-Jul-29 08:27N 59°27' E 024°46'4 3.9
2016-Jul-29 07:33N 59°30' E 024°44'1919.0
2016-Jul-29 06:33N 59°49' E 024°49'7 0.5
2016-Jul-28 17:21N 59°55' E 024°52'1822.3
2016-Jul-28 16:34N 59°39' E 024°41'1212.2
2016-Jul-28 15:33N 59°27' E 024°46'2 2.1
2016-Jul-28 14:33N 59°29' E 024°46'2524.8
2016-Jul-28 13:33N 59°54' E 024°51'1614.5
2016-Jul-28 12:28N 60°09' E 024°55'0 0.0
2016-Jul-28 11:28N 60°09' E 024°55'1212.8
2016-Jul-28 10:33N 59°58' E 024°54'2020.3
2016-Jul-28 09:33N 59°39' E 024°41'12 9.5
2016-Jul-28 08:17N 59°27' E 024°46'3 4.5
2016-Jul-28 07:33N 59°30' E 024°45'1918.9
2016-Jul-28 06:33N 59°49' E 024°49'1919.4
2016-Jul-28 05:34N 60°08' E 024°54'1 0.6
2016-Jul-28 03:21N 60°09' E 024°55'911.1
2016-Jul-28 02:33N 60°00' E 024°54'8 8.0
2016-Jul-28 01:32N 59°53' E 024°50'1 1.5
2016-Jul-28 00:33N 59°51' E 024°49'1515.0
2016-Jul-27 23:33N 59°37' E 024°41'1010.2
2016-Jul-27 22:33N 59°27' E 024°46'0 0.5
2016-Jul-27 21:34N 59°27' E 024°47'1818.2
2016-Jul-27 20:33N 59°45' E 024°47'2020.4
2016-Jul-27 19:34N 60°05' E 024°54'4 3.8
2016-Jul-27 18:29N 60°09' E 024°55'8 9.1
2016-Jul-27 17:33N 60°01' E 024°54'2323.0
2016-Jul-27 16:33N 59°39' E 024°43'9 4.6
2016-Jul-27 14:32N 59°29' E 024°45'2524.9
2016-Jul-27 13:33N 59°54' E 024°52'1615.6
2016-Jul-27 12:33N 60°09' E 024°55'0 0.0
2016-Jul-27 11:27N 60°09' E 024°55'1414.5
2016-Jul-27 10:28N 59°55' E 024°52'2021.3
2016-Jul-27 09:33N 59°36' E 024°41'10 9.7
2016-Jul-27 08:32N 59°27' E 024°46'4 3.6
2016-Jul-27 07:33N 59°30' E 024°44'1919.3
2016-Jul-27 06:33N 59°49' E 024°47'15 4.3
2016-Jul-27 03:11N 60°04' E 024°54'1015.1
2016-Jul-27 02:33N 59°54' E 024°50'2 1.5
2016-Jul-27 01:33N 59°53' E 024°49'5 5.3
2016-Jul-27 00:34N 59°47' E 024°49'1413.5
2016-Jul-26 23:33N 59°34' E 024°43'8 7.7
2016-Jul-26 22:33N 59°27' E 024°46'0 0.3
2016-Jul-26 21:34N 59°27' E 024°46'1717.1
2016-Jul-26 20:33N 59°44' E 024°47'2221.5
2016-Jul-26 19:33N 60°05' E 024°54'6 2.9
2016-Jul-26 17:34N 59°60' E 024°54'2121.2
2016-Jul-26 16:34N 59°39' E 024°41'1312.3
2016-Jul-26 15:30N 59°27' E 024°46'1 0.7
2016-Jul-26 14:34N 59°27' E 024°47'2424.1
2016-Jul-26 13:34N 59°51' E 024°50'2 0.7
2016-Jul-26 10:14N 59°49' E 024°52'1622.9
2016-Jul-26 09:34N 59°34' E 024°43'8 7.3
2016-Jul-26 08:31N 59°27' E 024°46'4 3.7
2016-Jul-26 07:33N 59°30' E 024°44'2019.7
2016-Jul-26 06:33N 59°50' E 024°51'1919.2
2016-Jul-26 05:33N 60°09' E 024°55'1 0.6
2016-Jul-26 04:28N 60°09' E 024°55'0 0.0
2016-Jul-26 01:28N 60°09' E 024°55'0 0.0
2016-Jul-26 00:29N 60°09' E 024°55'15 2.1
2016-Jul-25 17:15N 59°54' E 024°51'1420.1
2016-Jul-25 16:33N 59°41' E 024°41'14 7.1
2016-Jul-25 14:33N 59°27' E 024°47'2424.3
2016-Jul-25 13:33N 59°52' E 024°49'2 0.7
2016-Jul-25 10:16N 59°49' E 024°50'1723.4
2016-Jul-25 09:33N 59°33' E 024°43'7 5.8
2016-Jul-25 08:26N 59°27' E 024°46'4 4.2
2016-Jul-25 07:33N 59°30' E 024°44'2018.6
2016-Jul-25 06:30N 59°50' E 024°50'8 0.6
2016-Jul-24 16:34N 59°42' E 024°46'1515.1
2016-Jul-24 15:32N 59°27' E 024°46'0 0.0
2016-Jul-24 14:33N 59°27' E 024°46'2221.9
2016-Jul-24 13:33N 59°49' E 024°49'7 2.1
2016-Jul-24 10:31N 59°55' E 024°52'2122.2
2016-Jul-24 09:33N 59°34' E 024°43'8 7.4
2016-Jul-24 08:30N 59°27' E 024°46'4 4.1
2016-Jul-24 07:29N 59°31' E 024°44'1919.2
2016-Jul-24 06:30N 59°49' E 024°47'9 0.6
2016-Jul-23 16:34N 59°41' E 024°45'1413.9
2016-Jul-23 15:34N 59°27' E 024°46'0 0.1
2016-Jul-23 14:33N 59°27' E 024°46'2020.4
2016-Jul-23 13:34N 59°47' E 024°45'10 3.3
2016-Jul-23 10:31N 59°56' E 024°53'1920.5
2016-Jul-23 09:33N 59°38' E 024°41'1211.0
2016-Jul-23 08:30N 59°27' E 024°46'3 3.1
2016-Jul-23 07:33N 59°30' E 024°45'2019.8
2016-Jul-23 06:33N 59°49' E 024°47'2 0.1
2016-Jul-22 17:08N 59°49' E 024°50'1323.3
2016-Jul-22 16:33N 59°37' E 024°41'10 9.9
2016-Jul-22 15:31N 59°27' E 024°46'3 2.9
2016-Jul-22 14:33N 59°29' E 024°45'2525.2
2016-Jul-22 13:33N 59°55' E 024°52'6 1.7
2016-Jul-22 10:13N 59°49' E 024°49'1522.6
2016-Jul-22 09:33N 59°34' E 024°42'4 2.2
2016-Jul-22 07:33N 59°30' E 024°45'2019.8
2016-Jul-22 06:33N 59°50' E 024°47'6 0.4
2016-Jul-21 17:19N 59°55' E 024°52'1621.0
2016-Jul-21 16:33N 59°40' E 024°41'1313.4
2016-Jul-21 15:33N 59°27' E 024°46'1 0.5
2016-Jul-21 14:33N 59°27' E 024°47'2121.7
2016-Jul-21 13:33N 59°48' E 024°49'11 2.9
2016-Jul-21 09:33N 59°38' E 024°42'1110.2
2016-Jul-21 08:28N 59°27' E 024°46'4 4.0
2016-Jul-21 07:33N 59°30' E 024°44'1919.4
2016-Jul-21 06:33N 59°49' E 024°47'4 0.9
2016-Jul-21 02:27N 59°53' E 024°46'0 0.5
2016-Jul-21 01:33N 59°53' E 024°47'2 1.5
2016-Jul-21 00:27N 59°52' E 024°48'1415.2
2016-Jul-20 23:33N 59°39' E 024°42'1212.0
2016-Jul-20 22:34N 59°27' E 024°46'0 0.5
2016-Jul-20 21:33N 59°27' E 024°47'2121.2
2016-Jul-20 20:34N 59°48' E 024°43'7 2.0
2016-Jul-20 17:11N 59°54' E 024°50'1421.6
2016-Jul-20 16:32N 59°40' E 024°41'  
Track history (hours):
 
Tides and Currents Weather Stations Pressure Air Temp Water Temp Dewpoint Dewpoint Depression Visibility Wind Speed Wind Dir Waves Ship Positions

Finlandia

Last reported at 2016-Jul-31 06:33 UTC. Time now 2016-Jul-31 07:20 UTC.
Position N 59°49' E 024°49'.

Length 175 m; draft 7 m.

Type: Passenger vessel. MMSI: 230628000.

Date/timePositionNaut miles runAvg speedWind from/ knotsBaromVisibWave heightAir tempDewpointWater temp
2016-Jul-31 06:33N 59°49' E 024°49'13 0.9
2016-Jul-30 16:23N 59°37' E 024°41'1113.1
2016-Jul-30 15:33N 59°27' E 024°46'1 0.6
2016-Jul-30 14:33N 59°27' E 024°47'2221.7
2016-Jul-30 13:34N 59°49' E 024°49'2119.9
2016-Jul-30 12:32N 60°09' E 024°55'0 0.2
2016-Jul-30 11:33N 60°09' E 024°55'1414.0
2016-Jul-30 10:34N 59°55' E 024°52'1918.7
2016-Jul-30 09:34N 59°38' E 024°41'1110.6
2016-Jul-30 08:30N 59°27' E 024°46'5 5.1
2016-Jul-30 07:33N 59°31' E 024°43'1919.3
2016-Jul-30 06:33N 59°51' E 024°47'19 3.1
2016-Jul-30 00:31N 60°09' E 024°55'0 0.0
2016-Jul-29 19:31N 60°09' E 024°55'0 0.0
2016-Jul-29 18:31N 60°09' E 024°55'10 9.4
2016-Jul-29 17:30N 59°60' E 024°54'1819.7
2016-Jul-29 16:33N 59°42' E 024°41'16 7.8
2016-Jul-29 14:33N 59°27' E 024°47'2222.2
2016-Jul-29 13:33N 59°49' E 024°50'2 0.5
2016-Jul-29 10:05N 59°48' E 024°49'1220.3
2016-Jul-29 09:29N 59°36' E 024°41'10 9.2
2016-Jul-29 08:27N 59°27' E 024°46'4 3.9
2016-Jul-29 07:33N 59°30' E 024°44'1919.0
2016-Jul-29 06:33N 59°49' E 024°49'7 0.5
2016-Jul-28 17:21N 59°55' E 024°52'1822.3
2016-Jul-28 16:34N 59°39' E 024°41'1212.2
2016-Jul-28 15:33N 59°27' E 024°46'2 2.1
2016-Jul-28 14:33N 59°29' E 024°46'2524.8
2016-Jul-28 13:33N 59°54' E 024°51'1614.5
2016-Jul-28 12:28N 60°09' E 024°55'0 0.0
2016-Jul-28 11:28N 60°09' E 024°55'1212.8
2016-Jul-28 10:33N 59°58' E 024°54'2020.3
2016-Jul-28 09:33N 59°39' E 024°41'12 9.5
2016-Jul-28 08:17N 59°27' E 024°46'3 4.5
2016-Jul-28 07:33N 59°30' E 024°45'1918.9
2016-Jul-28 06:33N 59°49' E 024°49'1919.4
2016-Jul-28 05:34N 60°08' E 024°54'1 0.6
2016-Jul-28 03:21N 60°09' E 024°55'911.1
2016-Jul-28 02:33N 60°00' E 024°54'8 8.0
2016-Jul-28 01:32N 59°53' E 024°50'1 1.5
2016-Jul-28 00:33N 59°51' E 024°49'1515.0
2016-Jul-27 23:33N 59°37' E 024°41'1010.2
2016-Jul-27 22:33N 59°27' E 024°46'0 0.5
2016-Jul-27 21:34N 59°27' E 024°47'1818.2
2016-Jul-27 20:33N 59°45' E 024°47'2020.4
2016-Jul-27 19:34N 60°05' E 024°54'4 3.8
2016-Jul-27 18:29N 60°09' E 024°55'8 9.1
2016-Jul-27 17:33N 60°01' E 024°54'2323.0
2016-Jul-27 16:33N 59°39' E 024°43'9 4.6
2016-Jul-27 14:32N 59°29' E 024°45'2524.9
2016-Jul-27 13:33N 59°54' E 024°52'1615.6
2016-Jul-27 12:33N 60°09' E 024°55'0 0.0
2016-Jul-27 11:27N 60°09' E 024°55'1414.5
2016-Jul-27 10:28N 59°55' E 024°52'2021.3
2016-Jul-27 09:33N 59°36' E 024°41'10 9.7
2016-Jul-27 08:32N 59°27' E 024°46'4 3.6
2016-Jul-27 07:33N 59°30' E 024°44'1919.3
2016-Jul-27 06:33N 59°49' E 024°47'15 4.3
2016-Jul-27 03:11N 60°04' E 024°54'1015.1
2016-Jul-27 02:33N 59°54' E 024°50'2 1.5
2016-Jul-27 01:33N 59°53' E 024°49'5 5.3
2016-Jul-27 00:34N 59°47' E 024°49'1413.5
2016-Jul-26 23:33N 59°34' E 024°43'8 7.7
2016-Jul-26 22:33N 59°27' E 024°46'0 0.3
2016-Jul-26 21:34N 59°27' E 024°46'1717.1
2016-Jul-26 20:33N 59°44' E 024°47'2221.5
2016-Jul-26 19:33N 60°05' E 024°54'6 2.9
2016-Jul-26 17:34N 59°60' E 024°54'2121.2
2016-Jul-26 16:34N 59°39' E 024°41'1312.3
2016-Jul-26 15:30N 59°27' E 024°46'1 0.7
2016-Jul-26 14:34N 59°27' E 024°47'2424.1
2016-Jul-26 13:34N 59°51' E 024°50'2 0.7
2016-Jul-26 10:14N 59°49' E 024°52'1622.9
2016-Jul-26 09:34N 59°34' E 024°43'8 7.3
2016-Jul-26 08:31N 59°27' E 024°46'4 3.7
2016-Jul-26 07:33N 59°30' E 024°44'2019.7
2016-Jul-26 06:33N 59°50' E 024°51'1919.2
2016-Jul-26 05:33N 60°09' E 024°55'1 0.6
2016-Jul-26 04:28N 60°09' E 024°55'0 0.0
2016-Jul-26 01:28N 60°09' E 024°55'0 0.0
2016-Jul-26 00:29N 60°09' E 024°55'15 2.1
2016-Jul-25 17:15N 59°54' E 024°51'1420.1
2016-Jul-25 16:33N 59°41' E 024°41'14 7.1
2016-Jul-25 14:33N 59°27' E 024°47'2424.3
2016-Jul-25 13:33N 59°52' E 024°49'2 0.7
2016-Jul-25 10:16N 59°49' E 024°50'1723.4
2016-Jul-25 09:33N 59°33' E 024°43'7 5.8
2016-Jul-25 08:26N 59°27' E 024°46'4 4.2
2016-Jul-25 07:33N 59°30' E 024°44'2018.6
2016-Jul-25 06:30N 59°50' E 024°50'8 0.6
2016-Jul-24 16:34N 59°42' E 024°46'1515.1
2016-Jul-24 15:32N 59°27' E 024°46'0 0.0
2016-Jul-24 14:33N 59°27' E 024°46'2221.9
2016-Jul-24 13:33N 59°49' E 024°49'7 2.1
2016-Jul-24 10:31N 59°55' E 024°52'2122.2
2016-Jul-24 09:33N 59°34' E 024°43'8 7.4
2016-Jul-24 08:30N 59°27' E 024°46'4 4.1
2016-Jul-24 07:29N 59°31' E 024°44'1919.2
2016-Jul-24 06:30N 59°49' E 024°47'9 0.6
2016-Jul-23 16:34N 59°41' E 024°45'1413.9
2016-Jul-23 15:34N 59°27' E 024°46'0 0.1
2016-Jul-23 14:33N 59°27' E 024°46'2020.4
2016-Jul-23 13:34N 59°47' E 024°45'10 3.3
2016-Jul-23 10:31N 59°56' E 024°53'1920.5
2016-Jul-23 09:33N 59°38' E 024°41'1211.0
2016-Jul-23 08:30N 59°27' E 024°46'3 3.1
2016-Jul-23 07:33N 59°30' E 024°45'2019.8
2016-Jul-23 06:33N 59°49' E 024°47'2 0.1
2016-Jul-22 17:08N 59°49' E 024°50'1323.3
2016-Jul-22 16:33N 59°37' E 024°41'10 9.9
2016-Jul-22 15:31N 59°27' E 024°46'3 2.9
2016-Jul-22 14:33N 59°29' E 024°45'2525.2
2016-Jul-22 13:33N 59°55' E 024°52'6 1.7
2016-Jul-22 10:13N 59°49' E 024°49'1522.6
2016-Jul-22 09:33N 59°34' E 024°42'4 2.2
2016-Jul-22 07:33N 59°30' E 024°45'2019.8
2016-Jul-22 06:33N 59°50' E 024°47'6 0.4
2016-Jul-21 17:19N 59°55' E 024°52'1621.0
2016-Jul-21 16:33N 59°40' E 024°41'1313.4
2016-Jul-21 15:33N 59°27' E 024°46'1 0.5
2016-Jul-21 14:33N 59°27' E 024°47'2121.7
2016-Jul-21 13:33N 59°48' E 024°49'11 2.9
2016-Jul-21 09:33N 59°38' E 024°42'1110.2
2016-Jul-21 08:28N 59°27' E 024°46'4 4.0
2016-Jul-21 07:33N 59°30' E 024°44'1919.4
2016-Jul-21 06:33N 59°49' E 024°47'4 0.9
2016-Jul-21 02:27N 59°53' E 024°46'0 0.5
2016-Jul-21 01:33N 59°53' E 024°47'2 1.5
2016-Jul-21 00:27N 59°52' E 024°48'1415.2
2016-Jul-20 23:33N 59°39' E 024°42'1212.0
2016-Jul-20 22:34N 59°27' E 024°46'0 0.5
2016-Jul-20 21:33N 59°27' E 024°47'2121.2
2016-Jul-20 20:34N 59°48' E 024°43'7 2.0
2016-Jul-20 17:11N 59°54' E 024°50'1421.6
2016-Jul-20 16:32N 59°40' E 024°41'  

Dump ship's entire track history